Tiempo atmosférico en la estación meteorológica de Alcañices, Zamora (840 m.)



Fecha
DESCASC
Temp. máxima en grados centígrados (hora)
DESCASC
Temp. mínima en grados centígrados (hora)
DESCASC
Temp. media en grados centígrados
DESCASC
Racha de viento máxima en m/sg (hora)
DESCASC
Velocidad máxima media en intervalos de 10 minutos(hora)
DESCASC
Precipitaciones diarias en mm
DESCASC
Precipitaciones de 00:00 a 06:00 en mm
DESCASC
Precipitaciones de 06:00 a 12:00 en mm
DESCASC
Precipitaciones de 12:00 a 18:00 en mm
DESCASC
Precipitaciones de 18:00 a 24:00 en mm
DESCASC
15-08-2019 31.5 (17:50) 13.7 (06:40) 22.6 10.56 (18:40) 6.11 (09:30) 0 0 0 0 0
14-08-2019 30.7 (17:50) 11.7 (00:00) 21.2 9.44 (16:20) 6.11 (19:50) 0 0 0 0 0
13-08-2019 27.4 (17:40) 8.8 (00:00) 18.1 10 (02:50) 7.22 (02:50) 0 0 0 0 0
12-08-2019 23.6 (16:50) 5.4 (00:00) 14.5 8.89 (13:00) 4.72 (19:40) 0 0 0 0 0
11-08-2019 22.3 (16:30) 10.6 (00:00) 16.4 11.67 (15:20) 7.5 (17:00) 1.4 1.4 0 0 0
10-08-2019 23.7 (17:20) 11.8 (00:00) 17.8 9.17 (17:30) 5.56 (18:20) 0 0 0 0 0
09-08-2019 22.6 (17:50) 13.7 (00:00) 18.2 14.72 (15:20) 9.72 (15:10) 6.6 0.8 5.8 0 0
08-08-2019 26.4 (18:00) 16 (00:00) 21.2 14.17 (18:40) 9.72 (19:20) 1 0 1 0 0
07-08-2019 23.1 (13:00) 15.2 (00:00) 19.2 9.44 (16:30) 7.22 (16:30) 2.2 0 0 1 1.2
06-08-2019 28.6 (16:00) 13.1 (00:00) 20.9 9.44 (16:50) 6.67 (16:50) 0 0 0 0 0
05-08-2019 30.8 (18:20) 13 (00:00) 21.9 9.72 (17:30) 5.28 (17:30) 0 0 0 0 0
04-08-2019 30.5 (17:10) 15.3 (00:00) 22.9 10.28 (19:30) 6.39 (18:30) 0 0 0 0 0
03-08-2019 32.2 (16:20) 15.8 (00:00) 24 10 (17:10) 5.56 (17:10) 0 0 0 0 0
02-08-2019 33.2 (17:50) 12.2 (00:00) 22.7 9.72 (14:10) 6.11 (04:30) 0 0 0 0 0
01-08-2019 29.5 (16:50) 12.3 (00:00) 20.9 10 (16:20) 5.56 (17:00) 0 0 0 0 0
31-07-2019 26.8 (19:30) 10.2 (00:00) 18.5 9.72 (09:30) 7.5 (09:30) 0 0 0 0 0
30-07-2019 26.5 (17:50) 6.7 (00:00) 16.6 10.28 (14:30) 4.72 (02:10) 0 0 0 0 0
29-07-2019 23.2 (17:40) 10.7 (00:00) 17 14.72 (15:00) 8.61 (16:00) 0 0 0 0 0
28-07-2019 27 (18:40) 8.3 (00:00) 17.7 9.17 (19:20) 5.83 (19:20) 0 0 0 0 0
27-07-2019 23.6 (19:50) 10.9 (00:00) 17.3 11.39 (17:40) 7.5 (17:40) 0 0 0 0 0
26-07-2019 24.6 (17:10) 9.8 (00:00) 17.2 12.5 (13:20) 6.94 (19:10) 0 0 0 0 0
25-07-2019 28.9 (16:50) 15 (00:00) 21.9 11.94 (14:50) 8.61 (15:00) 0 0 0 0 0
24-07-2019 33.3 (18:30) 15.9 (00:00) 24.6 11.67 (16:20) 6.39 (18:10) 0 0 0 0 0
23-07-2019 33 (16:10) 18.1 (00:00) 25.6 14.17 (00:30) 10 (00:40) 0 0 0 0 0
22-07-2019 36.3 (17:30) 17.2 (00:00) 26.8 16.67 (19:20) 11.39 (19:20) 4.6 0 0 0 4.6
21-07-2019 34.3 (18:10) 14.5 (00:00) 24.4 7.78 (05:50) 5.83 (05:30) 0 0 0 0 0
20-07-2019 30.7 (16:50) 13.6 (06:40) 22.2 10.83 (17:50) 6.94 (18:20) 0 0 0 0 0
19-07-2019 32.3 (17:00) 14.2 (00:00) 23.2 11.94 (16:40) 6.39 (04:40) 0 0 0 0 0
18-07-2019 32.2 (18:40) 12.7 (00:00) 22.5 8.89 (00:40) 6.11 (03:00) 0 0 0 0 0

Gráficas

Temp. máximas Temp. mínimas Temp. medias Precipitaciones Rachas de viento máximas Velocidades máximas media en intervalos de 10 minutos

Datos horarios

Fecha y hora oficial Temperatura (ºC) Velocidad del viento (km/h) Dirección del viento Racha (km/h) Dirección de racha Precipitación (mm) Presión (hPa) Tendencia (hPa) Humedad (%)
2019-08-16 23:00:00 22.8 16 Oeste 24 Oeste 0 -- -- 46
2019-08-16 22:00:00 23.2 8 Oeste 18 Oeste 0 -- -- 40
2019-08-16 21:00:00 26.9 12 Oeste 30 Oeste 0 -- -- 31
2019-08-16 20:00:00 30.2 16 Oeste 30 Oeste 0 -- -- 26
2019-08-16 19:00:00 31.3 21 Oeste 33 Oeste 0 -- -- 20
2019-08-16 18:00:00 31.1 18 Oeste 37 Sudoeste 0 -- -- 26
2019-08-16 17:00:00 31.6 18 Oeste 35 Oeste 0 -- -- 28
2019-08-16 16:00:00 31 14 Sudoeste 35 Sudoeste 0 -- -- 25
2019-08-16 15:00:00 29.8 12 Sudoeste 26 Oeste 0 -- -- 27
2019-08-16 14:00:00 28.4 10 Oeste 22 Sudoeste 0 -- -- 34
2019-08-16 13:00:00 27.2 8 Sur 19 Sudoeste 0 -- -- 38
2019-08-16 12:00:00 26.2 6 Sur 13 Sudoeste 0 -- -- 43
2019-08-16 11:00:00 24.7 5 Nordeste 13 Este 0 -- -- 44
2019-08-16 10:00:00 21.7 9 Este 15 Este 0 -- -- 54
2019-08-16 09:00:00 19.2 5 Nordeste 8 Nordeste 0 -- -- 60
2019-08-16 08:00:00 14.1 7 Nordeste 9 Nordeste 0 -- -- 79
2019-08-16 07:00:00 13 6 Nordeste 11 Norte 0 -- -- 86
2019-08-16 06:00:00 13.6 9 Norte 14 Nordeste 0 -- -- 83
2019-08-16 05:00:00 15 12 Norte 17 Nordeste 0 -- -- 80
2019-08-16 04:00:00 16.2 15 Nordeste 19 Nordeste 0 -- -- 76
2019-08-16 03:00:00 17.6 17 Nordeste 22 Nordeste 0 -- -- 71
2019-08-16 02:00:00 18.2 13 Nordeste 18 Nordeste 0 -- -- 69
2019-08-16 01:00:00 18.1 12 Nordeste 27 Norte 0 -- -- 70
2019-08-16 00:00:00 19.7 6 Norte 13 Noroeste 0 -- -- 65
2019-08-15 23:00:00 21.4 11 Noroeste 19 Oeste 0 -- -- 60
2019-08-15 22:00:00 23.8 10 Oeste 21 Oeste 0 -- -- 53
2019-08-15 21:00:00 27.1 13 Oeste 27 Oeste 0 -- -- 44
2019-08-15 20:00:00 29.9 12 Oeste 28 Oeste 0 -- -- 34
2019-08-15 19:00:00 30.2 17 Sudoeste 38 Noroeste 0 -- -- 35
2019-08-15 18:00:00 31.2 13 Sudoeste 29 Sudoeste 0 -- -- 30
2019-08-15 17:00:00 30.4 11 Sudoeste 27 Sudoeste 0 -- -- 32
2019-08-15 16:00:00 29.3 14 Oeste 26 Sudoeste 0 -- -- 35
2019-08-15 15:00:00 29.5 7 Sur 20 Oeste 0 -- -- 33
2019-08-15 14:00:00 28.3 6 Este 21 Sur 0 -- -- 34
2019-08-15 13:00:00 26.6 7 Sudeste 17 Este 0 -- -- 38
2019-08-15 12:00:00 24.4 9 Sudeste 19 Este 0 -- -- 46
2019-08-15 11:00:00 22.2 10 Este 26 Nordeste 0 -- -- 57
2019-08-15 10:00:00 19.5 19 Este 30 Este 0 -- -- 69
2019-08-15 09:00:00 17.3 18 Este 25 Este 0 -- -- 80
2019-08-15 08:00:00 14.7 15 Este 21 Este 0 -- -- 86
2019-08-15 07:00:00 14.1 13 Este 15 Este 0 -- -- 90
2019-08-15 06:00:00 14.8 6 Nordeste 20 Este 0 -- -- 89
2019-08-15 05:00:00 14.4 10 Este 14 Nordeste 0 -- -- 90
2019-08-15 04:00:00 15 9 Nordeste 12 Nordeste 0 -- -- 87
2019-08-15 03:00:00 16.5 5 Sudoeste 9 Oeste 0 -- -- 80
2019-08-15 02:00:00 16.5 5 Sudoeste 12 Sudoeste 0 -- -- 80
2019-08-15 01:00:00 18.7 8 Sudoeste 10 Oeste 0 -- -- 74
2019-08-15 00:00:00 19.3 7 Sudoeste 14 Oeste 0 -- -- 70
2019-08-14 23:00:00 20.8 3 Oeste 20 Oeste 0 -- -- 66
2019-08-14 22:00:00 23.3 17 Oeste 31 Oeste 0 -- -- 55
2019-08-14 21:00:00 26 15 Oeste 30 Oeste 0 -- -- 50
2019-08-14 20:00:00 28.5 17 Oeste 32 Oeste 0 -- -- 43
2019-08-14 19:00:00 30.2 18 Noroeste 29 Noroeste 0 -- -- 38
2019-08-14 18:00:00 30.5 13 Oeste 28 Oeste 0 -- -- 36
2019-08-14 17:00:00 29.4 17 Oeste 34 Oeste 0 -- -- 36
2019-08-14 16:00:00 29.2 13 Oeste 31 Sudoeste 0 -- -- 35
2019-08-14 15:00:00 29.1 9 Noroeste 29 Oeste 0 -- -- 35
2019-08-14 14:00:00 27.4 11 Oeste 24 Sudoeste 0 -- -- 35
2019-08-14 13:00:00 25.8 8 Oeste 22 Sur 0 -- -- 37
2019-08-14 12:00:00 24.3 8 Sudoeste 17 Sur 0 -- -- 37
2019-08-14 11:00:00 22.8 6 Sudoeste 12 Sudoeste 0 -- -- 40
2019-08-14 10:00:00 21.4 4 Sur 9 Sur 0 -- -- 41
2019-08-14 09:00:00 19 2 Oeste 7 Nordeste 0 -- -- 50
2019-08-14 08:00:00 13.8 5 Norte 7 Nordeste 0 -- -- 62
2019-08-14 07:00:00 11.9 9 Norte 10 Norte 0 -- -- 68
2019-08-14 06:00:00 12.4 6 Norte 8 Norte 0 -- -- 65
2019-08-14 05:00:00 14.8 7 Sudeste 9 Sudeste 0 -- -- 53
2019-08-14 04:00:00 14.9 3 Oeste 6 Sudoeste 0 -- -- 54
2019-08-14 03:00:00 14.6 4 Sudoeste 8 Noroeste 0 -- -- 55
2019-08-14 02:00:00 15.9 7 Noroeste 8 Noroeste 0 -- -- 50
2019-08-14 01:00:00 16.4 4 Noroeste -- -- 0 -- -- 46
2019-08-14 00:00:00 17.3 6 Oeste 9 Oeste 0 -- -- 41
2019-08-13 23:00:00 18.1 7 Noroeste 14 Oeste 0 -- -- 39
2019-08-13 22:00:00 20 10 Oeste 14 Noroeste 0 -- -- 35
2019-08-13 21:00:00 23.7 12 Oeste 19 Oeste 0 -- -- 29
2019-08-13 20:00:00 25.9 10 Sudoeste 22 Oeste 0 -- -- 24
2019-08-13 19:00:00 26.9 8 Sudoeste 27 Sudoeste 0 -- -- 22
2019-08-13 18:00:00 26.6 8 Oeste 29 Oeste 0 -- -- 24
2019-08-13 17:00:00 26.3 9 Sudeste 26 Sur 0 -- -- 25
2019-08-13 16:00:00 26.2 6 Oeste 24 Sudeste 0 -- -- 27
2019-08-13 15:00:00 23.5 8 Sudeste 19 Nordeste 0 -- -- 32
2019-08-13 14:00:00 22.5 9 Nordeste 16 Sudeste 0 -- -- 37
2019-08-13 13:00:00 20.6 8 Nordeste 22 Nordeste 0 -- -- 41
2019-08-13 12:00:00 18.8 15 Este 27 Este 0 -- -- 48
2019-08-13 11:00:00 16.7 21 Este 30 Nordeste 0 -- -- 53
2019-08-13 10:00:00 14.8 21 Nordeste 32 Nordeste 0 -- -- 60
2019-08-13 09:00:00 12.3 15 Nordeste 21 Nordeste 0 -- -- 73
2019-08-13 08:00:00 9.3 16 Nordeste 21 Nordeste 0 -- -- 83
2019-08-13 07:00:00 8.8 16 Nordeste 23 Nordeste 0 -- -- 84
2019-08-13 06:00:00 9.8 18 Nordeste 25 Nordeste 0 -- -- 82
2019-08-13 05:00:00 10.1 19 Nordeste 29 Nordeste 0 -- -- 82
2019-08-13 04:00:00 10.6 21 Nordeste 31 Nordeste 0 -- -- 78
2019-08-13 03:00:00 11.6 22 Nordeste 36 Nordeste 0 -- -- 72
2019-08-13 02:00:00 12.1 16 Este 32 Nordeste 0 -- -- 70
2019-08-13 01:00:00 13.3 18 Nordeste 28 Nordeste 0 -- -- 65
2019-08-13 00:00:00 13.7 15 Nordeste 20 Nordeste 0 -- -- 57
2019-08-12 23:00:00 14.8 9 Nordeste 12 Nordeste 0 -- -- 47
2019-08-12 22:00:00 16.2 9 Nordeste 13 Este 0 -- -- 43
2019-08-12 21:00:00 17.9 12 Este 22 Este 0 -- -- 38
2019-08-12 20:00:00 20.5 15 Este 23 Este 0 -- -- 31
2019-08-12 19:00:00 20.9 8 Este 18 Este 0 -- -- 30
2019-08-12 18:00:00 22.2 12 Este 24 Norte 0 -- -- 28
2019-08-12 17:00:00 22.7 14 Este 31 Nordeste 0 -- -- 26
2019-08-12 16:00:00 22.4 7 Este 25 Nordeste 0 -- -- 27
2019-08-12 15:00:00 21.5 13 Nordeste 26 Nordeste 0 -- -- 29
2019-08-12 14:00:00 20.8 14 Norte 31 Norte 0 -- -- 32
2019-08-12 13:00:00 20.1 11 Nordeste 32 Nordeste 0 -- -- 36
2019-08-12 12:00:00 18.6 12 Nordeste 22 Nordeste 0 -- -- 38
2019-08-12 11:00:00 17.1 13 Nordeste 19 Nordeste 0 -- -- 49
2019-08-12 10:00:00 16.3 5 Noroeste 10 Noroeste 0 -- -- 55
2019-08-12 09:00:00 14.4 0 Calma 7 Oeste 0 -- -- 66
2019-08-12 08:00:00 6.9 6 Oeste 7 Oeste 0 -- -- 92
2019-08-12 07:00:00 6.1 5 Oeste 6 Oeste 0 -- -- 92
2019-08-12 06:00:00 6.8 3 Noroeste 6 Norte 0 -- -- 91
2019-08-12 05:00:00 7.6 3 Norte 5 Noroeste 0 -- -- 88
2019-08-12 04:00:00 8.4 0 Calma 9 Nordeste 0 -- -- 85
2019-08-12 03:00:00 8.5 3 Oeste 6 Sudeste 0 -- -- 83
2019-08-12 02:00:00 9.6 5 Noroeste 10 Noroeste 0 -- -- 76
2019-08-12 01:00:00 10.4 4 Norte 18 Noroeste 0 -- -- 73
2019-08-12 00:00:00 11.4 12 Norte 25 Noroeste 0 -- -- 70
2019-08-11 23:00:00 12.7 14 Oeste 23 Noroeste 0 -- -- 64
2019-08-11 22:00:00 14.2 16 Noroeste 34 Noroeste 0 -- -- 59
2019-08-11 21:00:00 17.1 17 Noroeste 36 Noroeste 0 -- -- 46
2019-08-11 20:00:00 19.7 20 Noroeste 35 Noroeste 0 -- -- 42
2019-08-11 19:00:00 21.3 21 Noroeste 37 Oeste 0 -- -- 38
2019-08-11 18:00:00 21.6 21 Oeste 40 Oeste 0 -- -- 31
2019-08-11 17:00:00 21.3 27 Oeste 41 Oeste 0 -- -- 36
2019-08-11 16:00:00 21.1 21 Oeste 42 Oeste 0 -- -- 30
2019-08-11 15:00:00 20.9 20 Oeste 37 Oeste 0 -- -- 32
2019-08-11 14:00:00 20 17 Oeste 35 Oeste 0 -- -- 39
2019-08-11 13:00:00 18.5 19 Oeste 31 Oeste 0 -- -- 47
2019-08-11 12:00:00 17.5 15 Sudoeste 27 Oeste 0 -- -- 59
2019-08-11 11:00:00 14.9 11 Oeste 20 Oeste 0 -- -- 81
2019-08-11 10:00:00 13.3 8 Sudoeste 15 Sudoeste 0 -- -- 91
2019-08-11 09:00:00 12.2 12 Sudoeste 15 Sudoeste 0 -- -- 93
2019-08-11 08:00:00 10.7 9 Sudoeste 13 Sudoeste 0 -- -- 98
2019-08-11 07:00:00 10.7 5 Sur 8 Sur 0 -- -- 98
2019-08-11 06:00:00 11.8 5 Sur 9 Sur 0 -- -- 97
2019-08-11 05:00:00 12.5 5 Sur 14 Sudoeste 0 -- -- 95
2019-08-11 04:00:00 13.1 6 Sudeste 24 Este 0.2 -- -- 93
2019-08-11 03:00:00 13.1 11 Este 19 Sudoeste 1.2 -- -- 92
2019-08-11 02:00:00 15.3 10 Sudoeste 17 Sudoeste 0 -- -- 73
2019-08-11 01:00:00 16.3 8 Oeste 14 Oeste 0 -- -- 62
2019-08-11 00:00:00 16.6 9 Noroeste 17 Oeste 0 -- -- 62
2019-08-10 23:00:00 17.3 9 Oeste 15 Oeste 0 -- -- 59
2019-08-10 22:00:00 18.2 6 Oeste 15 Oeste 0 -- -- 52
2019-08-10 21:00:00 19.7 12 Noroeste 26 Noroeste 0 -- -- 46
2019-08-10 20:00:00 20.8 19 Noroeste 30 Noroeste 0 -- -- 43
2019-08-10 19:00:00 22 17 Oeste 33 Sudoeste 0 -- -- 36
2019-08-10 18:00:00 23.3 15 Sudoeste 33 Sudoeste 0 -- -- 34
2019-08-10 17:00:00 23.6 13 Sudoeste 31 Sudoeste 0 -- -- 32
2019-08-10 16:00:00 23.3 15 Sudoeste 27 Sudoeste 0 -- -- 36
2019-08-10 15:00:00 21.8 10 Sudoeste 26 Sudoeste 0 -- -- 40
2019-08-10 14:00:00 22.7 8 Oeste 23 Sudoeste 0 -- -- 41
2019-08-10 13:00:00 20.2 10 Sudoeste 23 Sudoeste 0 -- -- 49
2019-08-10 12:00:00 19.4 10 Oeste 22 Oeste 0 -- -- 52
2019-08-10 11:00:00 17.5 9 Oeste 26 Oeste 0 -- -- 59
2019-08-10 10:00:00 16.5 12 Oeste 19 Oeste 0 -- -- 65
2019-08-10 09:00:00 13.5 9 Sudoeste 12 Sudoeste 0 -- -- 84
2019-08-10 08:00:00 12.1 8 Sudoeste 10 Sudoeste 0 -- -- 90
2019-08-10 07:00:00 12.5 8 Sudoeste 14 Sudoeste 0 -- -- 89
2019-08-10 06:00:00 13.2 5 Sudoeste 18 Oeste 0 -- -- 85
2019-08-10 05:00:00 13.5 9 Oeste 16 Oeste 0 -- -- 86
2019-08-10 04:00:00 13.7 9 Sudoeste 21 Oeste 0 -- -- 84
2019-08-10 03:00:00 14 11 Oeste 18 Oeste 0 -- -- 83
2019-08-10 02:00:00 13.8 5 Sudoeste 16 Oeste 0 -- -- 82
2019-08-10 01:00:00 13.8 11 Sudoeste 15 Sudoeste 0 -- -- 82
2019-08-10 00:00:00 13.7 11 Sudoeste 16 Oeste 0 -- -- 79
2019-08-09 23:00:00 15.6 12 Oeste 26 Oeste 0 -- -- 70
2019-08-09 22:00:00 16.5 13 Oeste 28 Oeste 0 -- -- 67
2019-08-09 21:00:00 18.3 14 Oeste 39 Oeste 0 -- -- 62
2019-08-09 20:00:00 20.9 19 Oeste 38 Sudoeste 0 -- -- 51
2019-08-09 19:00:00 22.1 25 Sudoeste 42 Oeste 0 -- -- 48
2019-08-09 18:00:00 22.1 27 Sudoeste 42 Oeste 0 -- -- 47
2019-08-09 17:00:00 21.5 22 Oeste 50 Sudoeste 0 -- -- 51
2019-08-09 16:00:00 21.5 28 Sudoeste 53 Sudoeste 0 -- -- 50
2019-08-09 15:00:00 21.2 31 Sudoeste 47 Sudoeste 0 -- -- 50
2019-08-09 14:00:00 20.9 26 Sudoeste 47 Sudoeste 0 -- -- 53
2019-08-09 13:00:00 19.2 26 Oeste 48 Sudoeste 0 -- -- 60
2019-08-09 12:00:00 17.4 29 Sudoeste 48 Oeste 0 -- -- 71
2019-08-09 11:00:00 16.7 26 Sudoeste 39 Sudoeste 0 -- -- 82
2019-08-09 10:00:00 15.9 21 Sudoeste 35 Sudoeste 0 -- -- 93
2019-08-09 09:00:00 14.9 22 Sudoeste 37 Sudoeste 0.4 -- -- 99
2019-08-09 08:00:00 15.1 23 Sudoeste 39 Sudoeste 1.2 -- -- 99
2019-08-09 07:00:00 16.7 22 Oeste 37 Sudoeste 4.2 -- -- 98
2019-08-09 06:00:00 18.2 22 Sudoeste 39 Sur 0.2 -- -- 97
2019-08-09 05:00:00 18.9 26 Sur 42 Sudoeste 0 -- -- 92
2019-08-09 04:00:00 18.3 22 Sudoeste 40 Sudoeste 0.6 -- -- 96
2019-08-09 03:00:00 18.7 27 Sudoeste 39 Sudoeste 0 -- -- 92
2019-08-09 02:00:00 20.4 15 Sudoeste 32 Sudoeste 0 -- -- 82
2019-08-09 01:00:00 21.1 16 Sudoeste 28 Sudoeste 0 -- -- 76
2019-08-09 00:00:00 21.5 12 Sudoeste 34 Sudoeste 0 -- -- 73
2019-08-08 23:00:00 22.2 23 Sudoeste 38 Sudoeste 0 -- -- 67
2019-08-08 22:00:00 22.4 21 Sudoeste 35 Sudoeste 0 -- -- 63
2019-08-08 21:00:00 23.4 24 Sudoeste 42 Sudoeste 0 -- -- 59
2019-08-08 20:00:00 24.8 29 Sudoeste 51 Sudoeste 0 -- -- 55
2019-08-08 19:00:00 25.1 28 Sudoeste 51 Sudoeste 0 -- -- 59
2019-08-08 18:00:00 26.4 21 Sudoeste 34 Sudoeste 0 -- -- 58
2019-08-08 17:00:00 24.4 21 Sudoeste 32 Sudoeste 0 -- -- 64
2019-08-08 16:00:00 25.4 17 Sudoeste 30 Sudoeste 0 -- -- 64
2019-08-08 15:00:00 24.4 19 Sudoeste 32 Sudoeste 0 -- -- 69
2019-08-08 14:00:00 22.3 17 Sudoeste 26 Sudoeste 0 -- -- 81
2019-08-08 13:00:00 20.2 14 Sudoeste 26 Sudoeste 0 -- -- 93
2019-08-08 12:00:00 19.1 19 Sudoeste 31 Sur 0 -- -- 95
2019-08-08 11:00:00 18.5 17 Sudoeste 28 Sudoeste 0 -- -- 99
2019-08-08 10:00:00 17.4 20 Sudoeste 30 Sudoeste 0.2 -- -- 100
2019-08-08 09:00:00 16.6 18 Sudoeste 28 Sur 0.6 -- -- 100
2019-08-08 08:00:00 16.1 13 Sur 24 Sur 0.2 -- -- 100
2019-08-08 07:00:00 16 13 Sudoeste 22 Sur 0 -- -- 99
2019-08-08 06:00:00 16.7 10 Sudoeste 20 Sudoeste 0 -- -- 95
2019-08-08 05:00:00 17.3 5 Oeste 17 Sudoeste 0 -- -- 91
2019-08-08 04:00:00 17 5 Sur 17 Sudoeste 0 -- -- 94
2019-08-08 03:00:00 16.9 12 Sudoeste 24 Sudoeste 0 -- -- 94
2019-08-08 02:00:00 17.2 9 Sudoeste 12 Sudoeste 0 -- -- 95
2019-08-08 01:00:00 17 4 Oeste 9 Sudoeste 0 -- -- 98
2019-08-08 00:00:00 17.2 4 Sudoeste 5 Sudoeste 0.2 -- -- 98
2019-08-07 23:00:00 17.4 3 Sudoeste 9 Oeste 0 -- -- 97
2019-08-07 22:00:00 17.5 6 Oeste 9 Oeste 0 -- -- 94
2019-08-07 21:00:00 17.6 7 Oeste 15 Oeste 0 -- -- 92
2019-08-07 20:00:00 18.1 9 Noroeste 14 Sudoeste 0 -- -- 91
2019-08-07 19:00:00 17.3 11 Oeste 17 Sudoeste 1 -- -- 96
2019-08-07 18:00:00 16.6 14 Sudoeste 22 Sudoeste 1 -- -- 96
2019-08-07 17:00:00 16.9 16 Sudoeste 34 Sudoeste 0 -- -- 91
2019-08-07 16:00:00 21.5 19 Sudoeste 32 Sudoeste 0 -- -- 61
2019-08-07 15:00:00 22.3 15 Sudoeste 25 Sudoeste 0 -- -- 54
2019-08-07 14:00:00 21.1 17 Oeste 28 Sudoeste 0 -- -- 65
2019-08-07 13:00:00 23.1 12 Sudoeste 23 Sudoeste 0 -- -- 58
2019-08-07 12:00:00 20.6 12 Oeste 20 Oeste 0 -- -- 67
2019-08-07 11:00:00 19 13 Sudoeste 18 Sudoeste 0 -- -- 73
2019-08-07 10:00:00 17.9 9 Sudoeste 14 Sudoeste 0 -- -- 80
2019-08-07 09:00:00 17.1 8 Sudoeste 12 Sudoeste 0 -- -- 82
2019-08-07 08:00:00 15.7 6 Sur 8 Sur 0 -- -- 87
2019-08-07 07:00:00 15.3 4 Oeste 9 Oeste 0 -- -- 90
2019-08-07 06:00:00 16 8 Sudoeste 14 Sudoeste 0 -- -- 87
2019-08-07 05:00:00 16.3 10 Oeste 13 Oeste 0 -- -- 84
2019-08-07 04:00:00 17 6 Sudoeste 17 Sudoeste 0 -- -- 82
2019-08-07 03:00:00 18.1 10 Sudoeste 15 Sudoeste 0 -- -- 76
2019-08-07 02:00:00 18.4 7 Sudoeste 14 Sudoeste 0 -- -- 75
2019-08-07 01:00:00 18.9 10 Sudoeste 15 Sudoeste 0 -- -- 72
2019-08-07 00:00:00 19.8 10 Sudoeste 16 Oeste 0 -- -- 65
2019-08-06 23:00:00 20.7 9 Oeste 21 Oeste 0 -- -- 61
2019-08-06 22:00:00 21.3 13 Oeste 17 Oeste 0 -- -- 59
2019-08-06 21:00:00 22.2 10 Noroeste 28 Noroeste 0 -- -- 57
2019-08-06 20:00:00 23.2 15 Noroeste 32 Oeste 0 -- -- 52
2019-08-06 19:00:00 24.9 19 Noroeste 31 Noroeste 0 -- -- 48
2019-08-06 18:00:00 26.3 22 Oeste 33 Oeste 0 -- -- 38
2019-08-06 17:00:00 26.9 20 Oeste 34 Oeste 0 -- -- 33
2019-08-06 16:00:00 28.6 16 Sudoeste 31 Oeste 0 -- -- 35
2019-08-06 15:00:00 27 18 Sudoeste 30 Noroeste 0 -- -- 36
2019-08-06 14:00:00 25.6 12 Sudoeste 21 Sudoeste 0 -- -- 43
2019-08-06 13:00:00 25.7 10 Sudoeste 21 Oeste 0 -- -- 47
2019-08-06 12:00:00 23.6 9 Sudoeste 17 Sudoeste 0 -- -- 59
2019-08-06 11:00:00 21.4 8 Sudoeste 12 Sudoeste 0 -- -- 69
2019-08-06 10:00:00 19 10 Sudoeste 13 Sudoeste 0 -- -- 79
2019-08-06 09:00:00 18.4 4 Sur 8 Oeste 0 -- -- 83
2019-08-06 08:00:00 14.6 4 Oeste 5 Oeste 0 -- -- 92
2019-08-06 07:00:00 13.7 0 Calma 7 Norte 0 -- -- 97
2019-08-06 06:00:00 14.4 0 Calma 9 Oeste 0 -- -- 91
2019-08-06 05:00:00 15.8 4 Sudoeste 5 Sudoeste 0 -- -- 89
2019-08-06 04:00:00 16 3 Sudeste 10 Sudeste 0 -- -- 86
2019-08-06 03:00:00 16.8 4 Sur 18 Sudoeste 0 -- -- 76
2019-08-06 02:00:00 19.1 13 Sudoeste 17 Sudoeste 0 -- -- 69
2019-08-06 01:00:00 19.7 13 Oeste 17 Sudoeste 0 -- -- 65
2019-08-06 00:00:00 20.9 3 Sudoeste 17 Oeste 0 -- -- 59
2019-08-05 23:00:00 23.2 11 Oeste 23 Oeste 0 -- -- 51
2019-08-05 22:00:00 24.5 10 Oeste 20 Oeste 0 -- -- 43
2019-08-05 21:00:00 27.8 13 Oeste 27 Oeste 0 -- -- 35
2019-08-05 20:00:00 29.3 18 Oeste 30 Sudoeste 0 -- -- 30
2019-08-05 19:00:00 29.9 18 Oeste 31 Oeste 0 -- -- 30
2019-08-05 18:00:00 30 14 Sudoeste 35 Sudoeste 0 -- -- 28
2019-08-05 17:00:00 30.2 15 Oeste 31 Oeste 0 -- -- 29
2019-08-05 16:00:00 29.4 15 Sudoeste 28 Sudoeste 0 -- -- 32
2019-08-05 15:00:00 28.6 15 Sudoeste 26 Sudoeste 0 -- -- 36
2019-08-05 14:00:00 28.1 6 Sudoeste 26 Sudoeste 0 -- -- 40
2019-08-05 13:00:00 26.7 9 Oeste 19 Oeste 0 -- -- 45
2019-08-05 12:00:00 25.8 4 Sudoeste 12 Este 0 -- -- 49
2019-08-05 11:00:00 24.1 5 Este 12 Este 0 -- -- 56
2019-08-05 10:00:00 21 8 Nordeste 14 Nordeste 0 -- -- 69
2019-08-05 09:00:00 18.5 9 Nordeste 12 Nordeste 0 -- -- 77
2019-08-05 08:00:00 14.6 8 Nordeste 13 Este 0 -- -- 90
2019-08-05 07:00:00 13.5 9 Este 13 Nordeste 0 -- -- 91
2019-08-05 06:00:00 14.5 0 Calma 7 Oeste 0 -- -- 92
2019-08-05 05:00:00 15.2 3 Oeste 10 Sudoeste 0 -- -- 90
2019-08-05 04:00:00 15.4 10 Sudeste 14 Este 0 -- -- 84
2019-08-05 03:00:00 18.2 6 Sudoeste 8 Sudoeste 0 -- -- 71
2019-08-05 02:00:00 18.1 5 Sudoeste 12 Sudoeste 0 -- -- 68
2019-08-05 01:00:00 20.1 9 Sudoeste 10 Oeste 0 -- -- 61
2019-08-05 00:00:00 19.9 5 Oeste 12 Noroeste 0 -- -- 62
2019-08-04 23:00:00 21.9 5 Oeste 12 Oeste 0 -- -- 57
2019-08-04 22:00:00 23.7 9 Noroeste 28 Noroeste 0 -- -- 50
2019-08-04 21:00:00 27.4 13 Noroeste 26 Oeste 0 -- -- 40
2019-08-04 20:00:00 29.1 17 Oeste 37 Sudoeste 0 -- -- 35
2019-08-04 19:00:00 29.3 19 Sudoeste 34 Sudoeste 0 -- -- 33
2019-08-04 18:00:00 29.9 20 Sudoeste 36 Oeste 0 -- -- 28
2019-08-04 17:00:00 30.1 18 Oeste 34 Oeste 0 -- -- 30
2019-08-04 16:00:00 29 21 Oeste 36 Oeste 0 -- -- 30
2019-08-04 15:00:00 29 18 Sudoeste 35 Sudoeste 0 -- -- 32
2019-08-04 14:00:00 28.2 17 Sudoeste 28 Sudoeste 0 -- -- 32
2019-08-04 13:00:00 26.7 15 Sudoeste 27 Oeste 0 -- -- 41
2019-08-04 12:00:00 25 12 Sudoeste 21 Sudoeste 0 -- -- 52
2019-08-04 11:00:00 24.3 6 Oeste 10 Oeste 0 -- -- 56
2019-08-04 10:00:00 21.3 5 Oeste 9 Oeste 0 -- -- 69
2019-08-04 09:00:00 18.1 7 Sudoeste 10 Sudoeste 0 -- -- 82
2019-08-04 08:00:00 16 6 Sudoeste 12 Sudoeste 0 -- -- 89
2019-08-04 07:00:00 15.8 12 Sudoeste 15 Sudoeste 0 -- -- 88
2019-08-04 06:00:00 16.4 10 Sudoeste 14 Sudoeste 0 -- -- 84
2019-08-04 05:00:00 16.1 6 Sudeste 10 Sudeste 0 -- -- 83
2019-08-04 04:00:00 15.7 9 Sudeste 18 Nordeste 0 -- -- 78
2019-08-04 03:00:00 18.5 7 Sudoeste 12 Oeste 0 -- -- 67
2019-08-04 02:00:00 19.7 9 Oeste 14 Oeste 0 -- -- 61
2019-08-04 01:00:00 20.2 9 Oeste 11 Oeste 0 -- -- 57
2019-08-04 00:00:00 20.4 7 Noroeste 11 Noroeste 0 -- -- 55
2019-08-03 23:00:00 22.2 8 Noroeste 18 Oeste 0 -- -- 50
2019-08-03 22:00:00 25.2 13 Oeste 26 Oeste 0 -- -- 40
2019-08-03 21:00:00 28.4 14 Noroeste 27 Noroeste 0 -- -- 30
2019-08-03 20:00:00 30.4 17 Oeste 33 Oeste 0 -- -- 28
2019-08-03 19:00:00 31.2 19 Sudoeste 36 Oeste 0 -- -- 24
2019-08-03 18:00:00 32.2 15 Sudoeste 36 Sudoeste 0 -- -- 26
2019-08-03 17:00:00 31.9 15 Sudoeste 33 Oeste 0 -- -- 25
2019-08-03 16:00:00 31.8 14 Sudoeste 30 Sudoeste 0 -- -- 24
2019-08-03 15:00:00 31.2 12 Oeste 28 Oeste 0 -- -- 27
2019-08-03 14:00:00 30.2 11 Sudoeste 23 Oeste 0 -- -- 30
2019-08-03 13:00:00 30.2 10 Sudoeste 20 Sudoeste 0 -- -- 36
2019-08-03 12:00:00 29.7 5 Noroeste 17 Noroeste 0 -- -- 35
2019-08-03 11:00:00 27.1 5 Nordeste 17 Nordeste 0 -- -- 40
2019-08-03 10:00:00 23.7 13 Nordeste 22 Nordeste 0 -- -- 48
2019-08-03 09:00:00 21 10 Nordeste 15 Nordeste 0 -- -- 55
2019-08-03 08:00:00 17.9 13 Nordeste 16 Nordeste 0 -- -- 65
2019-08-03 07:00:00 16 13 Nordeste 17 Nordeste 0 -- -- 73
2019-08-03 06:00:00 16.8 16 Nordeste 20 Nordeste 0 -- -- 71
2019-08-03 05:00:00 17.3 17 Nordeste 21 Nordeste 0 -- -- 70
2019-08-03 04:00:00 18.4 18 Nordeste 22 Nordeste 0 -- -- 66
2019-08-03 03:00:00 18.9 19 Nordeste 23 Nordeste 0 -- -- 62
2019-08-03 02:00:00 19 13 Nordeste 17 Nordeste 0 -- -- 59
2019-08-03 01:00:00 20.3 7 Noroeste 9 Noroeste 0 -- -- 56
2019-08-03 00:00:00 20 7 Noroeste 10 Oeste 0 -- -- 60
2019-08-02 23:00:00 22.6 8 Oeste 15 Oeste 0 -- -- 46
2019-08-02 22:00:00 25.3 9 Oeste 15 Oeste 0 -- -- 36
2019-08-02 21:00:00 29.3 10 Oeste 18 Sudoeste 0 -- -- 30
2019-08-02 20:00:00 31.5 9 Oeste 22 Sudoeste 0 -- -- 24
2019-08-02 19:00:00 31.3 11 Sudoeste 21 Oeste 0 -- -- 24
2019-08-02 18:00:00 33 8 Noroeste 19 Oeste 0 -- -- 23
2019-08-02 17:00:00 30.5 17 Sudoeste 25 Sudoeste 0 -- -- 26
2019-08-02 16:00:00 30.7 8 Oeste 24 Sur 0 -- -- 26
2019-08-02 15:00:00 29.4 8 Este 35 Este 0 -- -- 30
2019-08-02 14:00:00 28.9 6 Sudoeste 21 Sudeste 0 -- -- 31
2019-08-02 13:00:00 27.3 10 Nordeste 19 Este 0 -- -- 39
2019-08-02 12:00:00 24.5 12 Nordeste 19 Nordeste 0 -- -- 46
2019-08-02 11:00:00 21.7 14 Nordeste 27 Este 0 -- -- 55
2019-08-02 10:00:00 19.2 21 Nordeste 31 Nordeste 0 -- -- 64
2019-08-02 09:00:00 16.8 19 Nordeste 25 Nordeste 0 -- -- 73
2019-08-02 08:00:00 13.7 13 Nordeste 16 Nordeste 0 -- -- 86
2019-08-02 07:00:00 12.6 15 Nordeste 19 Nordeste 0 -- -- 91
2019-08-02 06:00:00 12.8 17 Nordeste 23 Este 0 -- -- 91
2019-08-02 05:00:00 13.9 19 Nordeste 29 Este 0 -- -- 87
2019-08-02 04:00:00 14.6 20 Nordeste 25 Nordeste 0 -- -- 85
2019-08-02 03:00:00 15.8 19 Este 29 Nordeste 0 -- -- 80
2019-08-02 02:00:00 16.7 18 Este 22 Este 0 -- -- 76
2019-08-02 01:00:00 17.3 9 Norte 16 Nordeste 0 -- -- 61
2019-08-02 00:00:00 18.5 4 Noroeste 13 Noroeste 0 -- -- 57
2019-08-01 23:00:00 19.9 9 Noroeste 18 Oeste 0 -- -- 53
2019-08-01 22:00:00 23.3 11 Oeste 24 Oeste 0 -- -- 42
2019-08-01 21:00:00 27.4 7 Oeste 19 Oeste 0 -- -- 28
2019-08-01 20:00:00 28.5 9 Oeste 26 Oeste 0 -- -- 23
2019-08-01 19:00:00 28.9 14 Oeste 30 Sudoeste 0 -- -- 23
2019-08-01 18:00:00 29.3 15 Oeste 30 Sudoeste 0 -- -- 23
2019-08-01 17:00:00 28.8 20 Sudoeste 36 Sur 0 -- -- 23
2019-08-01 16:00:00 28.7 15 Oeste 30 Sudoeste 0 -- -- 27
2019-08-01 15:00:00 27.8 11 Oeste 28 Oeste 0 -- -- 29
2019-08-01 14:00:00 27.4 13 Oeste 26 Sudoeste 0 -- -- 28
2019-08-01 13:00:00 26.1 9 Sudoeste 21 Oeste 0 -- -- 39
2019-08-01 12:00:00 26.2 6 Noroeste 17 Noroeste 0 -- -- 41
2019-08-01 11:00:00 23.9 4 Norte 14 Nordeste 0 -- -- 47
2019-08-01 10:00:00 20.3 10 Nordeste 19 Nordeste 0 -- -- 58
2019-08-01 09:00:00 18.4 9 Este 14 Este 0 -- -- 63
2019-08-01 08:00:00 13.6 12 Nordeste 13 Nordeste 0 -- -- 81
2019-08-01 07:00:00 12.7 9 Nordeste 11 Nordeste 0 -- -- 81
2019-08-01 06:00:00 12.7 9 Nordeste 14 Nordeste 0 -- -- 82
2019-08-01 05:00:00 13.1 12 Nordeste 15 Nordeste 0 -- -- 80
2019-08-01 04:00:00 14.5 15 Nordeste 17 Nordeste 0 -- -- 76
2019-08-01 03:00:00 14.6 13 Nordeste 15 Nordeste 0 -- -- 73
2019-08-01 02:00:00 16 15 Nordeste 20 Nordeste 0 -- -- 65
2019-08-01 01:00:00 16.9 12 Nordeste 21 Este 0 -- -- 50
2019-08-01 00:00:00 17.7 10 Norte 11 Norte 0 -- -- 45
2019-07-31 23:00:00 19.2 7 Nordeste 9 Nordeste 0 -- -- 41
2019-07-31 22:00:00 20.7 7 Nordeste 10 Nordeste 0 -- -- 37
2019-07-31 21:00:00 23.3 8 Nordeste 15 Norte 0 -- -- 34
2019-07-31 20:00:00 25.5 9 Nordeste 20 Norte 0 -- -- 31
2019-07-31 19:00:00 25.4 9 Nordeste 18 Norte 0 -- -- 30
2019-07-31 18:00:00 25.6 10 Norte 19 Norte 0 -- -- 31
2019-07-31 17:00:00 25.1 12 Nordeste 20 Norte 0 -- -- 32
2019-07-31 16:00:00 24.4 13 Nordeste 22 Este 0 -- -- 34
2019-07-31 15:00:00 23.2 15 Nordeste 25 Nordeste 0 -- -- 38
2019-07-31 14:00:00 22.3 17 Nordeste 30 Nordeste 0 -- -- 41
2019-07-31 13:00:00 22.4 22 Nordeste 35 Nordeste 0 -- -- 41
2019-07-31 12:00:00 20.4 19 Nordeste 28 Nordeste 0 -- -- 48
2019-07-31 11:00:00 18.4 20 Nordeste 31 Nordeste 0 -- -- 57
2019-07-31 10:00:00 15.7 23 Nordeste 35 Nordeste 0 -- -- 65
2019-07-31 09:00:00 13.3 23 Nordeste 32 Nordeste 0 -- -- 75
2019-07-31 08:00:00 11.1 18 Nordeste 24 Nordeste 0 -- -- 85
2019-07-31 07:00:00 10.7 21 Nordeste 29 Nordeste 0 -- -- 85
2019-07-31 06:00:00 11.2 21 Nordeste 30 Nordeste 0 -- -- 82
2019-07-31 05:00:00 12 22 Nordeste 32 Nordeste 0 -- -- 79
2019-07-31 04:00:00 12.5 25 Nordeste 33 Nordeste 0 -- -- 75
2019-07-31 03:00:00 13.1 22 Nordeste 33 Nordeste 0 -- -- 71
2019-07-31 02:00:00 13.9 21 Nordeste 28 Este 0 -- -- 66
2019-07-31 01:00:00 14.7 15 Nordeste 23 Nordeste 0 -- -- 48
2019-07-31 00:00:00 14.4 10 Nordeste 12 Nordeste 0 -- -- 44
2019-07-30 23:00:00 16.2 10 Nordeste 15 Nordeste 0 -- -- 39
2019-07-30 22:00:00 17.7 12 Este 16 Este 0 -- -- 37
2019-07-30 21:00:00 22.8 12 Este 19 Sudeste 0 -- -- 28
2019-07-30 20:00:00 25.2 9 Sudeste 20 Este 0 -- -- 24
2019-07-30 19:00:00 25.6 8 Sur 22 Nordeste 0 -- -- 22
2019-07-30 18:00:00 26.3 7 Este 17 Norte 0 -- -- 21
2019-07-30 17:00:00 25.1 9 Nordeste 20 Este 0 -- -- 23
2019-07-30 16:00:00 24.5 10 Nordeste 27 Norte 0 -- -- 25
2019-07-30 15:00:00 22.9 10 Nordeste 37 Norte 0 -- -- 29
2019-07-30 14:00:00 23.1 9 Nordeste 20 Norte 0 -- -- 30
2019-07-30 13:00:00 21 8 Norte 20 Nordeste 0 -- -- 35
2019-07-30 12:00:00 19.2 7 Norte 22 Nordeste 0 -- -- 41
2019-07-30 11:00:00 17.3 10 Nordeste 19 Este 0 -- -- 46
2019-07-30 10:00:00 15.6 6 Nordeste 12 Este 0 -- -- 55
2019-07-30 09:00:00 15.4 2 Nordeste 4 Sudoeste 0 -- -- 60
2019-07-30 08:00:00 9.3 0 Calma 6 Sudoeste 0 -- -- 81
2019-07-30 07:00:00 7 3 Oeste 10 Oeste 0 -- -- 91
2019-07-30 06:00:00 6.8 4 Sudoeste 8 Oeste 0 -- -- 89
2019-07-30 05:00:00 7.8 5 Sudoeste 13 Oeste 0 -- -- 86
2019-07-30 04:00:00 9 9 Sudoeste 17 Sudoeste 0 -- -- 83
2019-07-30 03:00:00 9.3 10 Sudoeste 23 Oeste 0 -- -- 83
2019-07-30 02:00:00 11.1 16 Oeste 25 Oeste 0 -- -- 75
2019-07-30 01:00:00 12.2 17 Oeste 27 Oeste 0 -- -- 69
2019-07-30 00:00:00 12.7 6 Oeste 12 Oeste 0 -- -- 64
2019-07-29 23:00:00 14.1 11 Oeste 27 Oeste 0 -- -- 61
2019-07-29 22:00:00 15.9 14 Oeste 34 Oeste 0 -- -- 54
2019-07-29 21:00:00 18.6 22 Oeste 37 Oeste 0 -- -- 43
2019-07-29 20:00:00 20.7 22 Oeste 39 Noroeste 0 -- -- 35
2019-07-29 19:00:00 22 23 Oeste 40 Oeste 0 -- -- 36
2019-07-29 18:00:00 22.7 24 Noroeste 43 Sudoeste 0 -- -- 35
2019-07-29 17:00:00 22.6 23 Oeste 40 Oeste 0 -- -- 37
2019-07-29 16:00:00 22.1 31 Noroeste 44 Oeste 0 -- -- 35
2019-07-29 15:00:00 21.9 22 Oeste 53 Oeste 0 -- -- 39
2019-07-29 14:00:00 21.1 24 Oeste 45 Oeste 0 -- -- 45
2019-07-29 13:00:00 19.7 20 Oeste 37 Sudoeste 0 -- -- 53
2019-07-29 12:00:00 18.2 27 Sudoeste 41 Oeste 0 -- -- 58
2019-07-29 11:00:00 16.5 22 Sudoeste 35 Oeste 0 -- -- 68
2019-07-29 10:00:00 15.2 20 Sudoeste 28 Sudoeste 0 -- -- 73
2019-07-29 09:00:00 13.6 12 Sudoeste 17 Sudoeste 0 -- -- 67
2019-07-29 08:00:00 12.5 10 Sudoeste 15 Sudoeste 0 -- -- 66
2019-07-29 07:00:00 10.7 12 Sudoeste 18 Sudoeste 0 -- -- 64
2019-07-29 06:00:00 11.7 12 Oeste 23 Oeste 0 -- -- 61
2019-07-29 05:00:00 12.1 17 Oeste 23 Sudoeste 0 -- -- 59
2019-07-29 04:00:00 12.3 14 Sudoeste 18 Sudoeste 0 -- -- 62
2019-07-29 03:00:00 13.5 11 Oeste 22 Oeste 0 -- -- 62
2019-07-29 02:00:00 16.2 14 Oeste 22 Oeste 0 -- -- 56
2019-07-29 01:00:00 16.6 9 Sudoeste 12 Oeste 0 -- -- 56
2019-07-29 00:00:00 17.5 6 Sudoeste 15 Oeste 0 -- -- 51
2019-07-28 23:00:00 19.9 11 Oeste 19 Oeste 0 -- -- 44
2019-07-28 22:00:00 21.6 5 Sudoeste 15 Sudoeste 0 -- -- 38
2019-07-28 21:00:00 24.8 12 Oeste 28 Oeste 0 -- -- 31
2019-07-28 20:00:00 26 14 Oeste 33 Sudoeste 0 -- -- 22
2019-07-28 19:00:00 26.3 16 Sudoeste 31 Oeste 0 -- -- 23
2019-07-28 18:00:00 26.7 12 Sudoeste 26 Sudoeste 0 -- -- 24
2019-07-28 17:00:00 26.4 10 Oeste 29 Oeste 0 -- -- 26
2019-07-28 16:00:00 25 15 Sudoeste 30 Oeste 0 -- -- 31
2019-07-28 15:00:00 24.3 7 Oeste 21 Sudoeste 0 -- -- 35
2019-07-28 14:00:00 22.7 6 Nordeste 25 Este 0 -- -- 41
2019-07-28 13:00:00 21.3 8 Sudeste 18 Nordeste 0 -- -- 47
2019-07-28 12:00:00 20.1 7 Sudeste 21 Este 0 -- -- 51
2019-07-28 11:00:00 17.9 12 Nordeste 23 Este 0 -- -- 60
2019-07-28 10:00:00 15.8 16 Este 21 Este 0 -- -- 67
2019-07-28 09:00:00 13.7 8 Nordeste 12 Nordeste 0 -- -- 79
2019-07-28 08:00:00 10.3 7 Nordeste 13 Norte 0 -- -- 94
2019-07-28 07:00:00 8.4 12 Norte 13 Norte 0 -- -- 99
2019-07-28 06:00:00 8.7 8 Nordeste 9 Norte 0 -- -- 97
2019-07-28 05:00:00 9.8 8 Nordeste 13 Nordeste 0 -- -- 96
2019-07-28 04:00:00 10.9 10 Nordeste 16 Nordeste 0 -- -- 93
2019-07-28 03:00:00 11.8 12 Nordeste 21 Este 0 -- -- 89
2019-07-28 02:00:00 13.2 16 Nordeste 26 Este 0 -- -- 83
2019-07-28 01:00:00 14.5 17 Nordeste 25 Nordeste 0 -- -- 67
2019-07-28 00:00:00 16.2 16 Nordeste 24 Nordeste 0 -- -- 60
2019-07-27 23:00:00 17.1 13 Nordeste 24 Nordeste 0 -- -- 60
2019-07-26 12:00:00 -- -- -- -- -- -- -- -- --
2019-07-26 11:00:00 20 4 Norte 13 Sudoeste 0 -- -- 58
2019-07-26 10:00:00 14.9 8 Oeste 14 Oeste 0 -- -- 85
2019-07-26 09:00:00 10.6 7 Sudoeste 14 Sudoeste 0 -- -- 99
2019-07-26 08:00:00 10.1 10 Sudoeste 15 Sudoeste 0 -- -- 99
2019-07-26 07:00:00 10 9 Sudoeste 15 Sudoeste 0 -- -- 99
2019-07-26 06:00:00 10.5 10 Sudoeste 16 Sudoeste 0 -- -- 97
2019-07-26 05:00:00 11.9 8 Sudoeste 15 Sudoeste 0 -- -- 94
2019-07-26 04:00:00 13.5 13 Sudoeste 22 Sudoeste 0 -- -- 88
2019-07-26 03:00:00 15.1 13 Sudoeste 23 Oeste 0 -- -- 83
2019-07-26 02:00:00 16.2 17 Oeste 34 Oeste 0 -- -- 78
2019-07-26 01:00:00 16.8 19 Oeste 35 Oeste 0 -- -- 81
2019-07-26 00:00:00 17.5 21 Oeste 35 Oeste 0 -- -- 82
2019-07-25 23:00:00 18.7 14 Oeste 32 Oeste 0 -- -- 81
2019-07-25 22:00:00 20.3 12 Oeste 23 Oeste 0 -- -- 72
2019-07-25 21:00:00 21 9 Oeste 31 Oeste 0 -- -- 67
2019-07-25 20:00:00 23.1 16 Noroeste 37 Oeste 0 -- -- 55
2019-07-25 19:00:00 23.8 23 Noroeste 39 Sudoeste 0 -- -- 53
2019-07-25 18:00:00 27.1 22 Sudoeste 39 Sudoeste 0 -- -- 39
2019-07-25 17:00:00 28.2 21 Sudoeste 41 Oeste 0 -- -- 39
2019-07-25 16:00:00 27.7 19 Sudoeste 41 Sudoeste 0 -- -- 41
2019-07-25 15:00:00 26.9 31 Sudoeste 43 Sudoeste 0 -- -- 41
2019-07-25 14:00:00 26.4 26 Sudoeste 42 Oeste 0 -- -- 41
2019-07-25 13:00:00 26.8 16 Sudoeste 30 Sudoeste 0 -- -- 40
2019-07-25 12:00:00 25.2 14 Sur 21 Sudoeste 0 -- -- 45
2019-07-25 11:00:00 22 11 Sudoeste 17 Sudoeste 0 -- -- 54
2019-07-25 10:00:00 21.9 8 Sudoeste 13 Sudoeste 0 -- -- 53
2019-07-25 09:00:00 19.7 6 Sudoeste 10 Sudoeste 0 -- -- 58
2019-07-25 08:00:00 17.5 6 Sudoeste 12 Oeste 0 -- -- 64
2019-07-25 07:00:00 15.9 8 Oeste 11 Sudoeste 0 -- -- 66
2019-07-25 06:00:00 16.2 7 Sudoeste 14 Sudoeste 0 -- -- 66
2019-07-25 05:00:00 17.5 12 Sudoeste 14 Sudoeste 0 -- -- 60
2019-07-25 04:00:00 17.8 10 Sudoeste 15 Oeste 0 -- -- 61
2019-07-25 03:00:00 19 11 Oeste 13 Sudoeste 0 -- -- 57
2019-07-25 02:00:00 19.7 7 Oeste 14 Oeste 0 -- -- 50
2019-07-25 01:00:00 21.1 11 Oeste 18 Oeste 0 -- -- 46
2019-07-25 00:00:00 21.9 10 Oeste 19 Oeste 0 -- -- 51
2019-07-24 23:00:00 24 14 Oeste 21 Oeste 0 -- -- 47
2019-07-24 22:00:00 26.1 13 Oeste 32 Oeste 0 -- -- 46
2019-07-24 21:00:00 30 18 Oeste 30 Sudoeste 0 -- -- 31
2019-07-24 20:00:00 32.1 18 Sudoeste 41 Sur 0 -- -- 25
2019-07-24 19:00:00 33.1 17 Sudoeste 38 Sur 0 -- -- 25
2019-07-24 18:00:00 33 20 Sudoeste 37 Sudoeste 0 -- -- 25
2019-07-24 17:00:00 32.8 22 Sur 42 Sudoeste 0 -- -- 29
2019-07-24 16:00:00 31.6 21 Sudoeste 40 Sudoeste 0 -- -- 28
2019-07-24 15:00:00 30.8 14 Sudoeste 38 Sudoeste 0 -- -- 35
2019-07-24 14:00:00 30.9 19 Sudoeste 33 Sur 0 -- -- 35
2019-07-24 13:00:00 29.7 14 Sudoeste 33 Sur 0 -- -- 40
2019-07-24 12:00:00 28.2 14 Sur 26 Sur 0 -- -- 44
2019-07-24 11:00:00 26.4 10 Sudeste 17 Sudeste 0 -- -- 52
2019-07-24 10:00:00 24.7 7 Sudeste 14 Este 0 -- -- 57
2019-07-24 09:00:00 22.1 8 Nordeste 12 Norte 0 -- -- 67
2019-07-24 08:00:00 17.3 11 Nordeste 14 Este 0 -- -- 85
2019-07-24 07:00:00 16.7 12 Este 19 Este 0 -- -- 87
2019-07-24 06:00:00 15.9 10 Nordeste 21 Este 0 -- -- 92
2019-07-24 05:00:00 16.4 6 Noroeste 10 Oeste 0 -- -- 91
2019-07-24 04:00:00 17 7 Noroeste 8 Noroeste 0 -- -- 88
2019-07-24 03:00:00 17.9 5 Noroeste 9 Este 0 -- -- 84
2019-07-24 02:00:00 19 8 Este 24 Este 0 -- -- 79
2019-07-24 01:00:00 20.5 17 Este 36 Este 0 -- -- 69
2019-07-24 00:00:00 21.7 7 Oeste 9 Oeste 0 -- -- 64
2019-07-23 23:00:00 23 4 Oeste 8 Noroeste 0 -- -- 58
2019-07-23 22:00:00 23.6 5 Noroeste 15 Oeste 0 -- -- 53
2019-07-23 21:00:00 26.7 6 Noroeste 18 Norte 0 -- -- 41
2019-07-23 20:00:00 25.7 8 Noroeste 36 Oeste 0 -- -- 45
2019-07-23 19:00:00 27.5 14 Oeste 40 Noroeste 0 -- -- 44
2019-07-23 18:00:00 30.1 9 Sudoeste 27 Sur 0 -- -- 40
2019-07-23 17:00:00 32.9 11 Sur 31 Sudoeste 0 -- -- 35
2019-07-23 16:00:00 31.9 14 Sudoeste 31 Sur 0 -- -- 33
2019-07-23 15:00:00 32.2 16 Sudoeste 32 Sudoeste 0 -- -- 31
2019-07-23 14:00:00 31.3 17 Sudeste 29 Sudoeste 0 -- -- 32
2019-07-23 13:00:00 30.2 14 Sur 25 Sur 0 -- -- 38
2019-07-23 12:00:00 28.6 8 Sudeste 16 Sudeste 0 -- -- 42
2019-07-23 11:00:00 26.9 8 Sudeste 19 Este 0 -- -- 49
2019-07-23 10:00:00 21.8 13 Este 24 Nordeste 0 -- -- 70
2019-07-23 09:00:00 19.7 17 Nordeste 25 Este 0 -- -- 74
2019-07-23 08:00:00 19 8 Este 12 Este 0 -- -- 73
2019-07-23 07:00:00 18.8 11 Este 15 Nordeste 0 -- -- 74
2019-07-23 06:00:00 19.1 3 Este 17 Sudoeste 0 -- -- 71
2019-07-23 05:00:00 19.7 11 Este 22 Este 0 -- -- 66
2019-07-23 04:00:00 18.8 13 Nordeste 17 Nordeste 0 -- -- 71
2019-07-23 03:00:00 20.4 15 Nordeste 22 Este 0 -- -- 64
2019-07-23 02:00:00 21.1 12 Este 25 Este 0 -- -- 60
2019-07-23 01:00:00 21.8 24 Este 51 Sudeste 0 -- -- 58
2019-07-23 00:00:00 22.1 15 Nordeste 34 Norte 0 -- -- 54
2019-07-22 23:00:00 23.7 22 Norte 35 Noroeste 0.2 -- -- 49
2019-07-22 22:00:00 23.9 13 Oeste 28 Oeste 0 -- -- 51
2019-07-22 21:00:00 20.2 16 Nordeste 31 Este 0 -- -- 79
2019-07-22 20:00:00 20.5 25 Este 60 Sudeste 4.4 -- -- 75
2019-07-22 19:00:00 35.3 8 Este 21 Sudoeste 0 -- -- 24
2019-07-22 18:00:00 35.1 13 Sudoeste 22 Sudoeste 0 -- -- 26
2019-07-22 17:00:00 35.8 5 Sudeste 17 Sur 0 -- -- 27
2019-07-22 16:00:00 35.3 4 Este 17 Sudeste 0 -- -- 27
2019-07-22 15:00:00 32.7 13 Sur 22 Sudeste 0 -- -- 31
2019-07-22 14:00:00 32.1 9 Este 18 Nordeste 0 -- -- 37
2019-07-22 13:00:00 30.6 9 Este 17 Este 0 -- -- 42
2019-07-22 12:00:00 29.4 9 Nordeste 20 Nordeste 0 -- -- 46
2019-07-22 11:00:00 26.1 10 Nordeste 23 Nordeste 0 -- -- 56
2019-07-22 10:00:00 23.5 18 Nordeste 23 Nordeste 0 -- -- 65
2019-07-22 09:00:00 20.4 12 Nordeste 16 Nordeste 0 -- -- 76
2019-07-22 08:00:00 17.9 13 Nordeste 22 Nordeste 0 -- -- 85
2019-07-22 07:00:00 17.3 16 Nordeste 22 Nordeste 0 -- -- 87
2019-07-22 06:00:00 17.5 16 Nordeste 24 Nordeste 0 -- -- 86
2019-07-22 05:00:00 18.4 19 Nordeste 25 Nordeste 0 -- -- 82
2019-07-22 04:00:00 19.1 18 Nordeste 24 Nordeste 0 -- -- 79
2019-07-22 03:00:00 19.1 16 Nordeste 19 Nordeste 0 -- -- 68
2019-07-22 02:00:00 20.3 15 Nordeste 22 Nordeste 0 -- -- 59
2019-07-22 01:00:00 20.4 11 Norte 13 Nordeste 0 -- -- 57
2019-07-22 00:00:00 22.4 4 Norte 8 Noroeste 0 -- -- 50
2019-07-21 23:00:00 23 7 Noroeste 13 Noroeste 0 -- -- 47
2019-07-21 22:00:00 25.4 8 Noroeste 12 Noroeste 0 -- -- 42
2019-07-21 21:00:00 30.9 8 Oeste 17 Sudoeste 0 -- -- 29
2019-07-21 20:00:00 32.2 10 Sudoeste 23 Sudoeste 0 -- -- 26
2019-07-21 19:00:00 33 12 Oeste 21 Oeste 0 -- -- 26
2019-07-21 18:00:00 33.7 8 Oeste 20 Sudoeste 0 -- -- 25
2019-07-21 17:00:00 32.5 10 Oeste 24 Sur 0 -- -- 27
2019-07-21 16:00:00 31.4 11 Sudoeste 22 Sur 0 -- -- 29
2019-07-21 15:00:00 30.4 12 Este 24 Este 0 -- -- 36
2019-07-21 14:00:00 29.2 7 Nordeste 18 Este 0 -- -- 41
2019-07-21 13:00:00 28.2 7 Este 18 Nordeste 0 -- -- 43
2019-07-21 12:00:00 25.8 12 Norte 21 Nordeste 0 -- -- 53
2019-07-21 11:00:00 22.9 14 Nordeste 25 Nordeste 0 -- -- 63
2019-07-21 10:00:00 20.6 18 Nordeste 26 Nordeste 0 -- -- 71
2019-07-21 09:00:00 18 19 Nordeste 27 Nordeste 0 -- -- 81
2019-07-21 08:00:00 15.5 15 Nordeste 21 Nordeste 0 -- -- 91
2019-07-21 07:00:00 14.8 17 Nordeste 28 Nordeste 0 -- -- 94
2019-07-21 06:00:00 15.3 19 Nordeste 28 Nordeste 0 -- -- 91
2019-07-21 05:00:00 15.7 18 Nordeste 24 Nordeste 0 -- -- 87
2019-07-21 04:00:00 15.4 15 Nordeste 18 Nordeste 0 -- -- 79
2019-07-21 03:00:00 18.2 15 Nordeste 19 Nordeste 0 -- -- 66
2019-07-21 02:00:00 17.1 13 Nordeste 22 Este 0 -- -- 74
2019-07-21 01:00:00 18.6 7 Noroeste 11 Noroeste 0 -- -- 69
2019-07-21 00:00:00 19.5 7 Oeste 13 Oeste 0 -- -- 65
2019-07-20 23:00:00 21.5 6 Oeste 12 Noroeste 0 -- -- 54
2019-07-20 22:00:00 24.2 9 Oeste 19 Oeste 0 -- -- 45
2019-07-20 21:00:00 27.5 13 Oeste 25 Oeste 0 -- -- 39
2019-07-20 20:00:00 28.8 20 Oeste 36 Oeste 0 -- -- 34
2019-07-20 19:00:00 29.3 22 Oeste 35 Oeste 0 -- -- 32
2019-07-20 18:00:00 29.8 19 Oeste 39 Sudoeste 0 -- -- 30
2019-07-20 17:00:00 30.2 23 Sudoeste 37 Sudoeste 0 -- -- 29
2019-07-20 16:00:00 29.6 15 Sudoeste 32 Sudoeste 0 -- -- 35
2019-07-20 15:00:00 29.6 13 Oeste 35 Sudoeste 0 -- -- 34
2019-07-20 14:00:00 27.8 15 Sudoeste 28 Oeste 0 -- -- 39
2019-07-20 13:00:00 27.2 9 Sudoeste 20 Sudoeste 0 -- -- 43
2019-07-20 12:00:00 26.1 6 Oeste 18 Sudoeste 0 -- -- 49
2019-07-20 11:00:00 23.6 7 Sudoeste 13 Oeste 0 -- -- 56
2019-07-20 10:00:00 21.8 4 Oeste 9 Oeste 0 -- -- 65
2019-07-20 09:00:00 19.2 4 Sudoeste 6 Sur 0 -- -- 75
2019-07-20 08:00:00 16.5 4 Sur 6 Sur 0 -- -- 86
2019-07-20 07:00:00 14.2 5 Sudoeste 10 Sudoeste 0 -- -- 95
2019-07-20 06:00:00 15.4 7 Sudoeste 14 Oeste 0 -- -- 89
2019-07-20 05:00:00 16.4 11 Sudoeste 14 Sudoeste 0 -- -- 84
2019-07-20 04:00:00 17.5 12 Sudoeste 14 Sudoeste 0 -- -- 76
2019-07-20 03:00:00 19.5 8 Sudoeste 12 Sudoeste 0 -- -- 65
2019-07-20 02:00:00 20.9 9 Oeste 15 Oeste 0 -- -- 61
2019-07-20 01:00:00 21.9 7 Oeste 17 Oeste 0 -- -- 57
2019-07-20 00:00:00 22.2 12 Oeste 16 Oeste 0 -- -- 54
2019-07-19 23:00:00 23.2 8 Noroeste 21 Oeste 0 -- -- 50
2019-07-19 22:00:00 25.9 10 Oeste 27 Oeste 0 -- -- 43
2019-07-19 21:00:00 29.4 13 Oeste 31 Noroeste 0 -- -- 33
2019-07-19 20:00:00 31.6 15 Oeste 33 Oeste 0 -- -- 30
2019-07-19 19:00:00 32.2 15 Sudoeste 33 Oeste 0 -- -- 26
2019-07-19 18:00:00 32 19 Oeste 36 Sudoeste 0 -- -- 25
2019-07-19 17:00:00 32.3 20 Sudoeste 43 Sudoeste 0 -- -- 24
2019-07-19 16:00:00 31.7 18 Sudoeste 32 Sudoeste 0 -- -- 27
2019-07-19 15:00:00 30.8 18 Sudoeste 31 Oeste 0 -- -- 26
2019-07-19 14:00:00 29.6 13 Sudoeste 24 Sudoeste 0 -- -- 31
2019-07-19 13:00:00 29 7 Sur 15 Sudoeste 0 -- -- 31
2019-07-19 12:00:00 27 6 Sudeste 17 Este 0 -- -- 38
2019-07-19 11:00:00 25 9 Este 19 Nordeste 0 -- -- 45
2019-07-19 10:00:00 21.7 16 Nordeste 24 Nordeste 0 -- -- 53
2019-07-19 09:00:00 19 17 Nordeste 23 Nordeste 0 -- -- 63
2019-07-19 08:00:00 16.3 17 Nordeste 23 Nordeste 0 -- -- 69
2019-07-19 07:00:00 14.5 18 Nordeste 23 Nordeste 0 -- -- 76
2019-07-19 06:00:00 14.7 13 Nordeste 25 Nordeste 0 -- -- 78
2019-07-19 05:00:00 16.3 21 Nordeste 30 Nordeste 0 -- -- 72
2019-07-19 04:00:00 16.5 19 Nordeste 26 Nordeste 0 -- -- 71
2019-07-19 03:00:00 17 18 Nordeste 23 Nordeste 0 -- -- 69
2019-07-19 02:00:00 19 17 Nordeste 24 Nordeste 0 -- -- 59
2019-07-19 01:00:00 19.3 13 Nordeste 14 Norte 0 -- -- 59
2019-07-19 00:00:00 19.5 0 Calma 16 Norte 0 -- -- 61
2019-07-18 23:00:00 22.4 6 Noroeste 13 Oeste 0 -- -- 50
2019-07-18 22:00:00 25.4 11 Oeste 16 Oeste 0 -- -- 41
2019-07-18 21:00:00 29.3 9 Oeste 16 Sudoeste 0 -- -- 34
2019-07-18 20:00:00 30.8 8 Sudoeste 21 Oeste 0 -- -- 29
2019-07-18 19:00:00 31.3 8 Sur 23 Oeste 0 -- -- 28
2019-07-18 18:00:00 30.8 12 Oeste 23 Oeste 0 -- -- 30
2019-07-18 17:00:00 30.7 5 Sudeste 19 Noroeste 0 -- -- 29
2019-07-18 16:00:00 31 9 Noroeste 23 Noroeste 0 -- -- 31
2019-07-18 15:00:00 28.7 6 Nordeste 17 Norte 0 -- -- 35
2019-07-18 14:00:00 26.7 8 Sudoeste 16 Nordeste 0 -- -- 41
2019-07-18 13:00:00 25.9 8 Nordeste 17 Sudeste 0 -- -- 42
2019-07-18 12:00:00 23.4 9 Este 22 Este 0 -- -- 48
2019-07-18 11:00:00 21.5 12 Nordeste 23 Este 0 -- -- 55
2019-07-18 10:00:00 19.4 15 Este 25 Nordeste 0 -- -- 62
2019-07-18 09:00:00 17.2 17 Nordeste 24 Nordeste 0 -- -- 71
2019-07-18 08:00:00 14.1 14 Nordeste 23 Nordeste 0 -- -- 84
2019-07-18 07:00:00 12.9 16 Nordeste 23 Nordeste 0 -- -- 88
2019-07-18 06:00:00 12.8 14 Nordeste 18 Nordeste 0 -- -- 90
2019-07-18 05:00:00 13.6 10 Nordeste 24 Nordeste 0 -- -- 87
2019-07-18 04:00:00 14.6 18 Nordeste 29 Nordeste 0 -- -- 84
2019-07-18 03:00:00 15.3 22 Nordeste 29 Este 0 -- -- 81
2019-07-18 02:00:00 16.2 21 Este 30 Este 0 -- -- 79
2019-07-18 01:00:00 17.5 21 Nordeste 32 Nordeste 0 -- -- 74
2019-07-18 00:00:00 19.9 17 Este 30 Este 0 -- -- 66